Sunday, January 21, 2018, 4:55 AM GMT
Back to Local

CYGR, Iles De La Madeleineque.

Location: , , Canada Lat: 47.417
Local Time: 4:55 AM GMT ( 4:55 GMT) Lon: -61.783
Time Zone: GMT Elev: 32 ft

Show me the last for .
Show Coded

Time T Td Feel RH Dir Speed Gust Alt SLP Vis Weather Sky Remarks
2018-01-21 04:31 28 25 13 86 320° 22 29 29.45 29.45 15 -SHSN DRSN BKN013 BKN022 Wind Shift: 13 min
Pressure rising rapidly
2018-01-21 04:00 32 28 17 86 280° 25 33 29.42 29.42 15 -SHSN DRSN SCT022 BKN040 6-hr Min Temp (4am): 14.0°F
2018-01-21 03:48 32 28 17 86 270° 26 33 29.41 29.41 15 -SHSN DRSN FEW031 BKN045 Pressure rising rapidly
6-hr Min Temp (4am): 14.0°F
2018-01-21 03:00 34 28 21 80 260° 26 - 29.38 29.38 15 DRSN FEW028 BKN040 BKN095 6-hr Min Temp (3am): 30.2°F
2018-01-21 02:00 32 30 17 92 260° 29 36 29.34 29.35 15 DRSN FEW060 BKN090 None
2018-01-21 01:00 32 28 17 86 260° 28 33 29.30 29.31 15 DRSN SCT056 BKN110 None
2018-01-21 00:00 32 28 16 86 270° 28 38 29.29 29.30 15 DRSN FEW035 BKN053 None
2018-01-20 23:00 32 28 17 86 260° 25 32 29.28 29.29 15 DRSN BKN035 OVC060 None
2018-01-20 22:00 32 28 17 86 260° 25 36 29.27 29.27 15 DRSN BKN036 BKN095 None
2018-01-20 21:00 32 28 17 86 260° 26 36 29.25 29.25 15 DRSN SCT035 BKN061 OVC089 None
2018-01-20 20:00 32 30 17 92 240° 17 31 29.24 29.25 7 -SN DRSN FEW010 BKN018 OVC035 None
2018-01-20 19:00 32 30 17 92 210° 20 32 29.24 29.25 2 -SN DRSN OVC010 None
2018-01-20 18:18 30 28 14 92 200° 18 33 29.25 29.26 2 -SN DRSN BKN005 OVC012 None
2018-01-20 18:06 30 28 15 92 200° 17 30 29.27 29.27 3 -SN DRSN BKN006 OVC012 None
2018-01-20 18:03 30 28 15 92 210° 16 31 29.27 29.27 2 -SN DRSN BKN005 OVC012 None
2018-01-20 18:00 30 28 15 92 200° 20 32 29.27 29.27 1 -SN DRSN BKN005 OVC012 None
2018-01-20 17:39 30 28 15 92 200° 20 30 29.28 29.28 1 -SN DRSN OVC005 Pressure falling rapidly
2018-01-20 17:05 28 27 12 92 200° 21 35 29.32 29.33 1 -SN BLSN BKN006 OVC013 Pressure falling rapidly
2018-01-20 17:00 28 27 12 92 210° 25 36 29.33 29.33 0 -SN BLSN OVC005 None
2018-01-20 16:47 28 27 12 92 210° 21 35 29.34 29.35 0 -SN BLSN OVC005 None
2018-01-20 16:00 28 27 13 92 190° 18 29 29.39 29.39 0 -SN BLSN OVC005 Pressure falling rapidly
2018-01-20 15:24 27 25 10 92 190° 16 32 29.44 29.44 0 -SN BLSN OVC005 None
2018-01-20 15:00 27 25 10 92 180° 22 32 29.46 29.47 0 SN DRSN OVC005 Pressure falling rapidly
2018-01-20 14:44 27 25 10 92 180° 20 33 29.48 29.49 0 SN DRSN VV004 Pressure falling rapidly
2018-01-20 14:17 27 23 10 86 180° 20 32 29.52 29.52 0 -SN DRSN OVC005 None
2018-01-20 14:08 27 23 9 86 190° 18 36 29.52 29.52 1 -SN DRSN OVC008 None
2018-01-20 14:00 25 23 6 92 190° 25 37 29.52 29.52 3 -SN DRSN OVC010 None
2018-01-20 13:43 27 21 9 79 180° 24 36 29.52 29.53 12 -SN DRSN OVC014 Pressure falling rapidly
2018-01-20 13:00 25 21 8 85 180° 21 30 29.58 29.58 20 -SN DRSN FEW010 OVC030 None
2018-01-20 12:46 25 19 8 79 180° 20 30 29.58 29.59 20 -SN DRSN FEW010 OVC030 None
2018-01-20 12:00 25 19 8 79 180° 20 28 29.62 29.63 20 DRSN FEW010 OVC035 None
2018-01-20 11:00 23 19 8 85 190° 15 22 29.68 29.69 15 FEW010 BKN050 None
2018-01-20 10:00 21 18 6 85 190° 13 20 29.72 29.72 15 SCT010 BKN050 None

Support USWX by starting your Amazon purchase here.